Terminal Aerodrome Forecast
Issued by NWS Charleston, WV

Current Version | Previous Version | Text Only | Print | Product List | Glossary Off
Versions: 1 2 3 4 5 6 7 8 9 10 11 12 13 14 15 16 17 18 19 20 21 22 23

000
FTUS41 KRLX 180900 AAA
TAFEKN
TAF AMD
KEKN 180919Z 1809/1906 31008KT P6SM OVC021
     FM181600 28006KT P6SM BKN040
     FM182100 28006KT P6SM BKN090
     FM190300 28004KT P6SM BKN020=

USA.gov is the U.S. government's official web portal to all federal, state and local government web resources and services.